Time;durP1;ratioP1;P1;durP2;ratioP2;P2;SDS_P1;SDS_P2;PMS_P1;PMS_P2;Temp;Humidity;BMP_temperature;BMP_pressure;BME280_temperature;BME280_humidity;BME280_pressure;Samples;Min_cycle;Max_cycle;Signal;HPM_P1;HPM_P2
2023/03/08 00:02:22;;;;;;;22.05;12.90;;;5.10;55.00;;;;;;4970761;28;117785;-79
2023/03/08 00:04:53;;;;;;;23.95;12.63;;;5.10;55.00;;;;;;4987110;28;114546;-79
2023/03/08 00:07:21;;;;;;;21.42;13.05;;;5.10;55.00;;;;;;4956172;28;114264;-79
2023/03/08 00:09:48;;;;;;;23.08;13.18;;;5.10;55.00;;;;;;4986800;28;115181;-79
2023/03/08 00:12:19;;;;;;;21.83;12.90;;;5.00;54.90;;;;;;4987204;28;114747;-79
2023/03/08 00:14:46;;;;;;;19.70;13.00;;;5.00;55.00;;;;;;4956776;28;114353;-80
2023/03/08 00:17:13;;;;;;;19.30;12.63;;;5.00;55.20;;;;;;4971123;28;114817;-79
2023/03/08 00:19:40;;;;;;;21.13;12.57;;;5.00;55.30;;;;;;4970834;28;115089;-79
2023/03/08 00:22:08;;;;;;;20.67;13.73;;;5.00;55.40;;;;;;5004560;28;115904;-79
2023/03/08 00:24:35;;;;;;;21.13;13.85;;;5.00;55.50;;;;;;5004722;28;114307;-79
2023/03/08 00:27:02;;;;;;;24.48;14.70;;;5.00;55.70;;;;;;5005903;28;114234;-79
2023/03/08 00:29:30;;;;;;;24.08;13.60;;;4.90;55.90;;;;;;4986946;28;115574;-79
2023/03/08 00:31:57;;;;;;;23.42;15.32;;;4.90;56.00;;;;;;4969715;28;116919;-79
2023/03/08 00:34:24;;;;;;;22.63;14.38;;;4.80;56.10;;;;;;4970555;28;114345;-80
2023/03/08 00:36:51;;;;;;;20.23;14.18;;;4.80;56.20;;;;;;5005614;28;114261;-79
2023/03/08 00:39:19;;;;;;;21.27;13.77;;;4.80;56.30;;;;;;5004319;28;115153;-80
2023/03/08 00:41:46;;;;;;;23.35;14.35;;;4.80;56.40;;;;;;4949376;28;115013;-79
2023/03/08 00:44:13;;;;;;;23.77;14.55;;;4.80;56.50;;;;;;4967552;28;114344;-79
2023/03/08 00:46:40;;;;;;;23.05;14.43;;;4.80;56.60;;;;;;4951319;28;114593;-79
2023/03/08 00:49:08;;;;;;;21.05;13.88;;;4.80;56.70;;;;;;4963604;28;115079;-79
2023/03/08 00:51:36;;;;;;;24.23;14.30;;;4.70;56.80;;;;;;4950958;28;117867;-79
2023/03/08 00:54:03;;;;;;;23.85;14.85;;;4.70;56.90;;;;;;4967643;28;114336;-79
2023/03/08 00:56:30;;;;;;;20.42;13.20;;;4.70;57.00;;;;;;4985072;28;114323;-79
2023/03/08 00:58:57;;;;;;;22.95;14.55;;;4.70;57.00;;;;;;4933906;28;115203;-79
2023/03/08 01:01:25;;;;;;;24.83;14.70;;;4.70;57.00;;;;;;4949253;28;114975;-80
2023/03/08 01:03:52;;;;;;;22.20;13.27;;;4.70;57.00;;;;;;4984322;28;114355;-79
2023/03/08 01:06:21;;;;;;;21.73;13.90;;;4.60;57.10;;;;;;4967362;28;114630;-79
2023/03/08 01:08:48;;;;;;;22.15;13.55;;;4.60;57.20;;;;;;4984270;28;115155;-79
2023/03/08 01:11:20;;;;;;;23.00;14.27;;;4.70;57.10;;;;;;4950563;28;114754;-79
2023/03/08 01:13:47;;;;;;;25.10;15.32;;;4.70;57.10;;;;;;4919234;28;114793;-79
2023/03/08 01:16:21;;;;;;;19.27;12.65;;;4.70;57.00;;;;;;4951634;28;117758;-79
2023/03/08 01:18:48;;;;;;;22.10;13.50;;;4.70;57.10;;;;;;4934229;28;116684;-79
2023/03/08 01:21:15;;;;;;;21.45;13.35;;;4.60;57.10;;;;;;4996230;28;114729;-79
2023/03/08 01:23:42;;;;;;;22.45;14.25;;;4.60;57.10;;;;;;4970045;28;114297;-79
2023/03/08 01:26:15;;;;;;;22.63;13.75;;;4.60;57.00;;;;;;4953924;28;114383;-79
2023/03/08 01:28:43;;;;;;;20.75;13.50;;;4.60;57.10;;;;;;4949478;28;115537;-80
2023/03/08 01:31:18;;;;;;;19.52;13.15;;;4.60;57.00;;;;;;4966363;28;114653;-79
2023/03/08 01:33:45;;;;;;;23.83;14.18;;;4.60;57.10;;;;;;4950353;28;114690;-79
2023/03/08 01:36:17;;;;;;;21.83;13.40;;;4.60;57.00;;;;;;4934085;28;114756;-79
2023/03/08 01:38:44;;;;;;;22.85;13.35;;;4.60;57.00;;;;;;4950030;28;115722;-80
2023/03/08 01:41:26;;;;;;;21.83;12.93;;;4.60;56.80;;;;;;4965934;28;116272;-79
2023/03/08 01:43:54;;;;;;;19.98;12.20;;;4.60;56.80;;;;;;4932374;28;114358;-79
2023/03/08 01:46:31;;;;;;;19.83;12.30;;;4.60;56.80;;;;;;4961449;28;114399;-79
2023/03/08 01:49:27;;;;;;;21.67;13.30;;;4.60;56.60;;;;;;4957887;28;117618;-79
2023/03/08 01:52:02;;;;;;;20.10;12.77;;;4.50;56.60;;;;;;4953512;28;114627;-79
2023/03/08 01:54:35;;;;;;;20.17;12.73;;;4.50;56.60;;;;;;4939432;28;114352;-79
2023/03/08 01:57:21;;;;;;;20.60;13.90;;;4.50;56.50;;;;;;4969524;28;114508;-79
2023/03/08 01:59:49;;;;;;;20.42;12.73;;;4.40;56.50;;;;;;4954442;28;115293;-79
2023/03/08 02:02:19;;;;;;;21.00;13.02;;;4.40;56.40;;;;;;4968908;28;114607;-79
2023/03/08 02:04:46;;;;;;;22.23;11.98;;;4.40;56.30;;;;;;4937733;28;114622;-79
2023/03/08 02:07:16;;;;;;;20.80;11.82;;;4.50;56.20;;;;;;4969492;28;114486;-80
2023/03/08 02:09:46;;;;;;;19.85;12.20;;;4.40;56.10;;;;;;4985765;28;115183;-79
2023/03/08 02:12:13;;;;;;;18.65;11.90;;;4.50;56.30;;;;;;4968647;28;114778;-79
2023/03/08 02:14:41;;;;;;;19.88;13.30;;;4.50;56.00;;;;;;4969437;28;114320;-79
2023/03/08 02:17:09;;;;;;;22.27;12.50;;;4.50;55.90;;;;;;4969706;28;114334;-81
2023/03/08 02:19:53;;;;;;;18.42;12.35;;;4.50;55.70;;;;;;4983630;28;115155;-80
2023/03/08 02:22:22;;;;;;;19.55;11.80;;;4.60;55.60;;;;;;4968873;28;114939;-79
2023/03/08 02:24:49;;;;;;;20.17;12.60;;;4.50;55.70;;;;;;4986187;28;114537;-80
2023/03/08 02:27:22;;;;;;;19.13;12.48;;;4.50;55.60;;;;;;4968970;28;114499;-80
2023/03/08 02:29:49;;;;;;;16.92;11.52;;;4.50;55.40;;;;;;5003041;28;115127;-80
2023/03/08 02:32:16;;;;;;;17.13;11.40;;;4.50;55.40;;;;;;4985234;28;114686;-81
2023/03/08 02:34:43;;;;;;;19.55;12.40;;;4.50;55.40;;;;;;4952878;28;114905;-79
2023/03/08 02:37:11;;;;;;;19.40;11.18;;;4.60;55.30;;;;;;4985962;28;114948;-80
2023/03/08 02:39:38;;;;;;;18.75;11.93;;;4.60;55.20;;;;;;4967447;28;115295;-79
2023/03/08 02:42:06;;;;;;;17.42;11.65;;;4.50;55.00;;;;;;4983978;28;117263;-80
2023/03/08 02:44:34;;;;;;;18.45;12.13;;;4.50;54.90;;;;;;4968372;28;114427;-80
2023/03/08 02:47:01;;;;;;;18.08;11.18;;;4.50;54.90;;;;;;4983304;28;114344;-80
2023/03/08 02:49:28;;;;;;;16.25;10.13;;;4.50;54.80;;;;;;4948534;28;117893;-79
2023/03/08 02:51:56;;;;;;;17.92;10.45;;;4.40;54.60;;;;;;4964716;28;114644;-80
2023/03/08 02:54:23;;;;;;;17.98;10.82;;;4.40;54.50;;;;;;4983388;28;114231;-80
2023/03/08 02:56:51;;;;;;;16.88;10.65;;;4.40;54.40;;;;;;4966223;28;114451;-79
2023/03/08 02:59:18;;;;;;;15.88;10.32;;;4.30;54.40;;;;;;4964355;28;116154;-79
2023/03/08 03:01:45;;;;;;;15.70;9.40;;;4.40;54.40;;;;;;4964454;28;114816;-79
2023/03/08 03:04:13;;;;;;;19.65;11.13;;;4.40;54.40;;;;;;4982796;28;114438;-80
2023/03/08 03:06:40;;;;;;;16.27;9.75;;;4.30;54.30;;;;;;4965294;28;114600;-79
2023/03/08 03:09:09;;;;;;;16.38;10.20;;;4.30;54.30;;;;;;4948610;28;114720;-80
2023/03/08 03:11:38;;;;;;;16.77;10.23;;;4.30;54.20;;;;;;4949199;28;114689;-80
2023/03/08 03:14:06;;;;;;;17.95;10.80;;;4.20;54.20;;;;;;4933302;28;114624;-79
2023/03/08 03:16:38;;;;;;;15.68;9.68;;;4.20;54.30;;;;;;4971344;28;114454;-80
2023/03/08 03:19:05;;;;;;;16.65;9.95;;;4.30;54.10;;;;;;4984394;28;115045;-80
2023/03/08 03:21:32;;;;;;;16.73;10.27;;;4.20;54.10;;;;;;4967774;28;116486;-80
2023/03/08 03:23:59;;;;;;;19.48;11.10;;;4.20;54.10;;;;;;4970106;28;114444;-80
2023/03/08 03:26:34;;;;;;;17.70;10.63;;;4.20;54.20;;;;;;4949577;28;114474;-80
2023/03/08 03:29:01;;;;;;;16.95;9.95;;;4.20;54.20;;;;;;4963918;28;115091;-79
2023/03/08 03:31:33;;;;;;;16.45;9.70;;;4.20;54.10;;;;;;4946500;28;117022;-80
2023/03/08 03:34:00;;;;;;;18.40;10.80;;;4.20;54.20;;;;;;4948796;28;114356;-80
2023/03/08 03:36:28;;;;;;;16.42;9.95;;;4.20;54.10;;;;;;4982731;28;114252;-80
2023/03/08 03:38:57;;;;;;;16.35;9.05;;;4.20;53.90;;;;;;4964364;28;115032;-80
2023/03/08 03:41:25;;;;;;;15.13;9.55;;;4.30;53.90;;;;;;4964303;28;115243;-80
2023/03/08 03:44:06;;;;;;;15.02;8.93;;;4.30;53.80;;;;;;4964899;28;114304;-80
2023/03/08 03:46:34;;;;;;;14.57;8.02;;;4.20;53.70;;;;;;4933377;28;114318;-80
2023/03/08 03:49:03;;;;;;;14.88;8.80;;;4.20;53.50;;;;;;4948134;28;115278;-79
2023/03/08 03:51:35;;;;;;;13.63;8.82;;;4.20;53.50;;;;;;4964320;28;115081;-80
2023/03/08 03:54:11;;;;;;;14.02;8.15;;;4.20;53.30;;;;;;4947241;28;116725;-79
2023/03/08 03:56:40;;;;;;;13.95;8.30;;;4.20;53.20;;;;;;4917533;28;114645;-79
2023/03/08 03:59:07;;;;;;;14.05;8.45;;;4.20;53.10;;;;;;4963923;28;115704;-80
2023/03/08 04:01:35;;;;;;;13.27;8.20;;;4.20;53.10;;;;;;4963446;28;114577;-80
2023/03/08 04:04:11;;;;;;;11.68;7.72;;;4.20;53.00;;;;;;4949800;28;114389;-79
2023/03/08 04:06:42;;;;;;;12.88;7.65;;;4.20;52.90;;;;;;4974308;28;114602;-80
2023/03/08 04:09:14;;;;;;;14.43;8.00;;;4.30;52.90;;;;;;4951361;28;117634;-80
2023/03/08 04:11:48;;;;;;;12.85;7.88;;;4.30;52.70;;;;;;4951967;28;117526;-79
2023/03/08 04:14:21;;;;;;;11.95;7.35;;;4.40;52.80;;;;;;4968310;28;114507;-80
2023/03/08 04:16:50;;;;;;;11.70;7.20;;;4.30;52.70;;;;;;4984412;28;114328;-80
2023/03/08 04:19:27;;;;;;;13.20;8.55;;;4.40;52.40;;;;;;4983117;28;115182;-80
2023/03/08 04:21:56;;;;;;;14.75;7.88;;;4.30;52.40;;;;;;4982711;28;114896;-79
2023/03/08 04:24:30;;;;;;;15.50;7.35;;;4.30;52.50;;;;;;4984033;28;115344;-80
2023/03/08 04:27:02;;;;;;;15.10;7.10;;;4.30;52.20;;;;;;4953102;28;114609;-80
2023/03/08 04:29:29;;;;;;;13.65;7.45;;;4.40;52.30;;;;;;4983146;28;115396;-80
2023/03/08 04:31:59;;;;;;;12.07;7.80;;;4.30;52.00;;;;;;4967254;28;114558;-80
2023/03/08 04:34:33;;;;;;;10.57;6.65;;;4.30;52.00;;;;;;4984259;28;114311;-79
2023/03/08 04:37:00;;;;;;;13.27;7.47;;;4.30;52.20;;;;;;4984369;28;114433;-80
2023/03/08 04:39:28;;;;;;;12.05;7.50;;;4.30;52.10;;;;;;4983675;28;115683;-80
2023/03/08 04:41:55;;;;;;;12.65;7.90;;;4.30;52.00;;;;;;4967149;28;114572;-79
2023/03/08 04:44:28;;;;;;;12.38;7.35;;;4.30;51.90;;;;;;4986934;28;114515;-80
2023/03/08 04:46:56;;;;;;;12.00;7.03;;;4.30;52.10;;;;;;4970638;28;114398;-80
2023/03/08 04:49:31;;;;;;;11.70;6.63;;;4.30;51.90;;;;;;4986317;28;115096;-80
2023/03/08 04:52:01;;;;;;;12.45;7.10;;;4.20;52.00;;;;;;4981560;28;115086;-79
2023/03/08 04:54:30;;;;;;;10.50;6.32;;;4.20;51.90;;;;;;4985444;28;114400;-79
2023/03/08 04:57:02;;;;;;;12.68;7.07;;;4.20;52.00;;;;;;4972638;28;114226;-80
2023/03/08 04:59:32;;;;;;;12.68;6.50;;;4.20;52.00;;;;;;4986673;28;115120;-79
2023/03/08 05:02:04;;;;;;;12.32;7.45;;;4.20;52.00;;;;;;4951257;28;114872;-79
2023/03/08 05:04:36;;;;;;;11.00;6.28;;;4.20;52.10;;;;;;4967422;28;114402;-79
2023/03/08 05:07:04;;;;;;;12.07;6.97;;;4.20;52.10;;;;;;4967316;28;114354;-80
2023/03/08 05:09:34;;;;;;;10.63;6.30;;;4.20;52.30;;;;;;4983077;28;115083;-80
2023/03/08 05:12:01;;;;;;;12.40;6.97;;;4.20;52.30;;;;;;4966634;28;114673;-79
2023/03/08 05:14:42;;;;;;;11.77;6.57;;;4.20;52.30;;;;;;4944530;28;114439;-79
2023/03/08 05:17:09;;;;;;;12.38;7.57;;;4.20;52.20;;;;;;4984970;28;114346;-79
2023/03/08 05:19:36;;;;;;;15.15;8.50;;;4.20;52.60;;;;;;4966251;28;115154;-79
2023/03/08 05:22:04;;;;;;;13.93;8.32;;;4.20;52.40;;;;;;4948927;28;116635;-80
2023/03/08 05:24:34;;;;;;;12.55;8.02;;;4.20;52.40;;;;;;4951062;28;114263;-80
2023/03/08 05:27:07;;;;;;;11.43;7.07;;;4.20;52.40;;;;;;4951538;28;114282;-80
2023/03/08 05:29:36;;;;;;;12.70;7.47;;;4.20;52.80;;;;;;4950210;28;115065;-80
2023/03/08 05:32:05;;;;;;;12.68;7.10;;;4.30;52.50;;;;;;4934526;28;114765;-80
2023/03/08 05:34:33;;;;;;;12.52;6.63;;;4.20;52.10;;;;;;4934535;28;114340;-80
2023/03/08 05:37:03;;;;;;;10.80;6.20;;;4.30;52.10;;;;;;4951147;28;114645;-80
2023/03/08 05:39:33;;;;;;;13.30;6.88;;;4.20;52.10;;;;;;4950175;28;114972;-80
2023/03/08 05:42:11;;;;;;;11.77;6.75;;;4.20;52.00;;;;;;4965945;28;114691;-80
2023/03/08 05:44:42;;;;;;;10.25;6.53;;;4.20;52.20;;;;;;4950768;28;114605;-80
2023/03/08 05:47:11;;;;;;;13.05;7.10;;;4.20;52.20;;;;;;4950930;28;114320;-79
2023/03/08 05:49:39;;;;;;;11.73;6.55;;;4.20;52.50;;;;;;4918282;28;115124;-80
2023/03/08 05:52:08;;;;;;;12.30;6.85;;;4.20;52.50;;;;;;4966450;28;114579;-80
2023/03/08 05:54:35;;;;;;;12.77;7.35;;;4.20;52.00;;;;;;4965341;28;114784;-80
2023/03/08 05:57:08;;;;;;;13.32;7.20;;;4.20;52.00;;;;;;4934364;28;114555;-80
2023/03/08 05:59:36;;;;;;;12.73;6.18;;;4.20;52.00;;;;;;4948660;28;115341;-80
2023/03/08 06:02:05;;;;;;;11.02;6.75;;;4.20;52.00;;;;;;4967057;28;117632;-80
2023/03/08 06:04:39;;;;;;;11.77;5.82;;;4.20;51.90;;;;;;4970660;28;114489;-80
2023/03/08 06:07:07;;;;;;;9.60;5.95;;;4.20;51.90;;;;;;4969403;28;114651;-80
2023/03/08 06:09:39;;;;;;;11.05;6.03;;;4.20;51.90;;;;;;5000414;28;114988;-81
2023/03/08 06:12:11;;;;;;;11.68;6.85;;;4.20;51.80;;;;;;5019674;28;114669;-79
2023/03/08 06:14:38;;;;;;;12.63;6.68;;;4.20;51.90;;;;;;5024114;28;114577;-80
2023/03/08 06:17:06;;;;;;;11.73;6.35;;;4.20;51.90;;;;;;5006448;28;114424;-80
2023/03/08 06:19:35;;;;;;;10.32;7.10;;;4.30;51.90;;;;;;5004993;28;115124;-80
2023/03/08 06:22:03;;;;;;;10.93;6.20;;;4.30;51.90;;;;;;4988270;28;115305;-80
2023/03/08 06:24:31;;;;;;;9.90;6.28;;;4.30;51.90;;;;;;5005187;28;118508;-80
2023/03/08 06:27:01;;;;;;;10.75;6.68;;;4.30;51.80;;;;;;5005399;28;114293;-80
2023/03/08 06:29:28;;;;;;;9.93;6.18;;;4.30;52.00;;;;;;4988471;28;115094;-80
2023/03/08 06:31:55;;;;;;;11.30;6.20;;;4.30;51.90;;;;;;4988196;28;115120;-79
2023/03/08 06:34:23;;;;;;;10.90;6.47;;;4.40;52.00;;;;;;4988985;28;114742;-80
2023/03/08 06:36:55;;;;;;;11.52;8.23;;;4.40;52.00;;;;;;4989238;28;114407;-80
2023/03/08 06:39:23;;;;;;;11.43;6.90;;;4.40;51.90;;;;;;4972653;28;115139;-80
2023/03/08 06:41:50;;;;;;;10.10;6.15;;;4.50;52.10;;;;;;4988769;28;116041;-80
2023/03/08 06:44:17;;;;;;;13.57;7.30;;;4.50;51.90;;;;;;5005493;28;114439;-80
2023/03/08 06:46:44;;;;;;;10.57;6.25;;;4.50;52.00;;;;;;5023531;28;114748;-80
2023/03/08 06:49:11;;;;;;;10.00;5.88;;;4.60;51.70;;;;;;5021758;28;116266;-80
2023/03/08 06:51:39;;;;;;;10.05;6.65;;;4.60;51.50;;;;;;4987923;28;114543;-77
2023/03/08 06:54:09;;;;;;;10.93;6.13;;;4.60;51.40;;;;;;4973028;28;114416;-79
2023/03/08 06:56:36;;;;;;;11.18;6.05;;;4.60;51.50;;;;;;5001537;28;114590;-78
2023/03/08 06:59:05;;;;;;;8.45;5.80;;;4.60;51.50;;;;;;5004344;28;115735;-78
2023/03/08 07:01:33;;;;;;;14.82;6.85;;;4.60;51.50;;;;;;5021833;28;115301;-78
2023/03/08 07:04:02;;;;;;;13.65;7.25;;;4.70;51.50;;;;;;5004991;28;114362;-79
2023/03/08 07:06:30;;;;;;;11.73;6.35;;;4.70;51.40;;;;;;5022790;27;114519;-79
2023/03/08 07:08:58;;;;;;;13.18;7.10;;;4.80;51.50;;;;;;5004609;28;115215;-79
2023/03/08 07:11:27;;;;;;;9.73;6.65;;;4.70;51.50;;;;;;5022293;28;114678;-80
2023/03/08 07:13:56;;;;;;;9.02;6.00;;;4.80;51.40;;;;;;5022552;28;114435;-80
2023/03/08 07:16:23;;;;;;;9.70;6.40;;;4.80;51.30;;;;;;4988433;28;114772;-80
2023/03/08 07:18:50;;;;;;;11.20;6.40;;;4.80;51.30;;;;;;5021988;28;115227;-80
2023/03/08 07:21:18;;;;;;;10.85;6.20;;;4.90;51.50;;;;;;5022130;28;114590;-79
2023/03/08 07:23:45;;;;;;;9.50;5.97;;;4.90;51.30;;;;;;5022720;28;114635;-80
2023/03/08 07:26:12;;;;;;;10.65;6.05;;;5.00;51.20;;;;;;4988086;28;114397;-80
2023/03/08 07:28:39;;;;;;;11.73;6.50;;;5.00;51.20;;;;;;5022180;28;115092;-80
2023/03/08 07:31:10;;;;;;;11.25;6.05;;;5.10;51.60;;;;;;5022455;28;114812;-80
2023/03/08 07:33:37;;;;;;;10.20;6.22;;;5.10;51.20;;;;;;4987834;28;114271;-79
2023/03/08 07:36:04;;;;;;;8.95;5.78;;;5.10;51.30;;;;;;5022634;28;114699;-80
2023/03/08 07:38:32;;;;;;;9.63;5.97;;;5.10;51.30;;;;;;5003646;28;115727;-80
2023/03/08 07:40:59;;;;;;;10.30;6.30;;;5.10;51.30;;;;;;5021747;28;114624;-80
2023/03/08 07:43:26;;;;;;;11.25;6.32;;;5.00;51.00;;;;;;5022465;28;114384;-78
2023/03/08 07:46:04;;;;;;;10.68;5.80;;;5.10;50.90;;;;;;5006287;28;114576;-79
2023/03/08 07:48:32;;;;;;;15.05;7.95;;;5.10;51.00;;;;;;5021783;28;115248;-80
2023/03/08 07:51:02;;;;;;;10.93;6.40;;;5.10;50.80;;;;;;5004058;28;114778;-79
2023/03/08 07:53:29;;;;;;;14.57;6.25;;;5.10;50.80;;;;;;5004523;28;114392;-80
2023/03/08 07:55:58;;;;;;;11.82;6.82;;;5.20;50.70;;;;;;5022897;28;114298;-80
2023/03/08 07:58:26;;;;;;;9.85;5.95;;;5.30;50.80;;;;;;4970625;28;116500;-80
2023/03/08 08:00:53;;;;;;;10.93;6.13;;;5.50;50.50;;;;;;4999779;28;114886;-80
2023/03/08 08:03:22;;;;;;;8.90;6.25;;;5.70;50.10;;;;;;4983907;28;114435;-80
2023/03/08 08:05:50;;;;;;;11.57;6.13;;;6.00;49.60;;;;;;5001216;28;114329;-80
2023/03/08 08:08:17;;;;;;;9.70;6.35;;;6.20;49.10;;;;;;5000275;28;115140;-80
2023/03/08 08:10:44;;;;;;;10.00;5.90;;;6.40;48.60;;;;;;5001526;28;114988;-80
2023/03/08 08:13:11;;;;;;;12.10;6.65;;;6.60;47.90;;;;;;4999973;28;114377;-80
2023/03/08 08:15:39;;;;;;;12.05;6.78;;;6.70;47.70;;;;;;5002188;28;114368;-80
2023/03/08 08:18:06;;;;;;;11.88;6.10;;;6.90;47.60;;;;;;5001228;28;117363;-80
2023/03/08 08:20:33;;;;;;;9.38;5.97;;;7.10;47.40;;;;;;5004933;28;116458;-80
2023/03/08 08:23:00;;;;;;;12.43;6.85;;;7.20;46.90;;;;;;5005218;28;114711;-81
2023/03/08 08:25:27;;;;;;;9.98;5.90;;;7.30;46.70;;;;;;5005139;28;114489;-80
2023/03/08 08:27:55;;;;;;;10.73;6.80;;;7.40;46.30;;;;;;5002930;28;115093;-80
2023/03/08 08:30:22;;;;;;;9.50;6.53;;;7.50;45.90;;;;;;5005025;28;114635;-79
2023/03/08 08:32:49;;;;;;;10.63;6.32;;;7.60;46.10;;;;;;4971149;28;114475;-80
2023/03/08 08:35:17;;;;;;;10.73;6.72;;;7.70;45.40;;;;;;5005359;28;114418;-79
2023/03/08 08:37:44;;;;;;;10.10;5.95;;;7.70;45.20;;;;;;5003402;28;115195;-79
2023/03/08 08:40:11;;;;;;;12.27;6.78;;;7.70;45.20;;;;;;4986833;28;117583;-80
2023/03/08 08:42:39;;;;;;;9.77;6.40;;;7.80;44.70;;;;;;5003534;28;114377;-80
2023/03/08 08:45:06;;;;;;;10.10;6.88;;;7.90;44.60;;;;;;5004305;28;114838;-80
2023/03/08 08:47:34;;;;;;;11.93;7.57;;;7.90;44.60;;;;;;5004206;28;117364;-79
2023/03/08 08:50:01;;;;;;;10.88;7.03;;;8.10;44.80;;;;;;5004228;28;114835;-79
2023/03/08 08:52:28;;;;;;;12.65;7.60;;;8.10;44.30;;;;;;4982504;28;116910;-79
2023/03/08 08:54:56;;;;;;;8.98;6.20;;;8.20;44.30;;;;;;5003925;28;114674;-79
2023/03/08 08:57:23;;;;;;;12.60;7.63;;;8.30;44.00;;;;;;5004211;28;115142;-79
2023/03/08 08:59:51;;;;;;;10.13;6.82;;;8.40;43.90;;;;;;5002749;28;115260;-79
2023/03/08 09:02:18;;;;;;;14.10;7.30;;;8.40;43.60;;;;;;4990618;28;114366;-80
2023/03/08 09:04:45;;;;;;;11.60;7.43;;;8.50;43.50;;;;;;5007207;28;115861;-80
2023/03/08 09:07:12;;;;;;;10.45;6.43;;;8.50;43.50;;;;;;5022774;28;115226;-80
2023/03/08 09:09:39;;;;;;;9.85;6.63;;;8.50;43.40;;;;;;5006901;28;114605;-79
2023/03/08 09:12:07;;;;;;;12.18;6.85;;;8.50;43.40;;;;;;5007248;28;114587;-79
2023/03/08 09:14:34;;;;;;;10.63;6.47;;;8.50;43.40;;;;;;5006309;28;114749;-79
2023/03/08 09:17:05;;;;;;;9.77;6.95;;;8.60;43.20;;;;;;5023466;28;115557;-80
2023/03/08 09:19:32;;;;;;;10.68;7.25;;;8.60;43.30;;;;;;4989046;28;116915;-79
2023/03/08 09:21:59;;;;;;;11.27;7.10;;;8.70;43.10;;;;;;4990257;28;114827;-80
2023/03/08 09:24:26;;;;;;;9.60;6.60;;;8.80;43.10;;;;;;5024637;28;114393;-81
2023/03/08 09:26:53;;;;;;;11.90;7.05;;;8.90;42.90;;;;;;4989403;28;116467;-80
2023/03/08 09:29:21;;;;;;;11.23;7.50;;;9.00;42.50;;;;;;4988358;28;115263;-80
2023/03/08 09:31:48;;;;;;;12.88;7.32;;;9.10;42.30;;;;;;4973659;28;114629;-80
2023/03/08 09:34:17;;;;;;;25.60;7.68;;;9.10;41.80;;;;;;5024887;28;114327;-80
2023/03/08 09:36:45;;;;;;;13.38;6.75;;;9.00;42.10;;;;;;5006177;28;116011;-81
2023/03/08 09:39:12;;;;;;;11.48;6.85;;;9.00;42.30;;;;;;5023716;28;114605;-81
2023/03/08 09:41:50;;;;;;;10.98;6.22;;;9.10;42.20;;;;;;5005893;28;114547;-80
2023/03/08 09:44:54;;;;;;;11.52;6.95;;;9.10;41.70;;;;;;5006341;28;114667;-80
2023/03/08 09:47:47;;;;;;;10.50;6.25;;;9.10;41.50;;;;;;5020669;28;115012;-80
2023/03/08 09:50:49;;;;;;;13.13;7.30;;;9.20;41.70;;;;;;4990094;28;114673;-80
2023/03/08 09:53:54;;;;;;;9.65;5.93;;;9.10;41.50;;;;;;5006469;28;116557;-79
2023/03/08 09:56:32;;;;;;;11.23;6.28;;;9.00;41.30;;;;;;4992848;28;114974;-80
2023/03/08 09:59:13;;;;;;;12.07;7.25;;;8.80;41.60;;;;;;4981644;28;115277;-80
2023/03/08 10:02:12;;;;;;;9.10;6.18;;;8.80;41.50;;;;;;4989640;28;114939;-79
2023/03/08 10:04:51;;;;;;;9.10;6.63;;;8.80;41.50;;;;;;4997613;28;114661;-80
2023/03/08 10:07:48;;;;;;;13.05;6.45;;;8.80;41.60;;;;;;4994799;28;114629;-79
2023/03/08 10:10:48;;;;;;;10.25;6.20;;;8.90;41.50;;;;;;4971731;28;117751;-80
2023/03/08 10:13:36;;;;;;;9.82;5.97;;;8.90;41.40;;;;;;4959942;28;117080;-80
2023/03/08 10:16:22;;;;;;;10.15;6.15;;;8.90;40.90;;;;;;5005585;28;114330;-80
2023/03/08 10:19:22;;;;;;;11.75;7.28;;;8.90;40.90;;;;;;4959579;28;115011;-80
2023/03/08 10:21:50;;;;;;;11.65;6.90;;;8.90;40.60;;;;;;4992441;28;115708;-78
2023/03/08 10:24:29;;;;;;;15.15;7.40;;;8.80;41.30;;;;;;4972343;28;115873;-80
2023/03/08 10:27:22;;;;;;;9.35;6.30;;;8.80;41.30;;;;;;4990676;28;114732;-80
2023/03/08 10:29:55;;;;;;;9.40;6.45;;;8.80;41.10;;;;;;4991137;28;114374;-80
2023/03/08 10:32:23;;;;;;;12.82;6.88;;;8.80;41.00;;;;;;5005304;28;115676;-80
2023/03/08 10:34:50;;;;;;;11.35;6.53;;;8.80;41.20;;;;;;5005373;28;114711;-80
2023/03/08 10:37:20;;;;;;;12.82;7.88;;;8.80;41.10;;;;;;5023172;28;114724;-81
2023/03/08 10:39:52;;;;;;;13.55;7.72;;;8.90;41.20;;;;;;4957277;27;114468;-80
2023/03/08 10:42:21;;;;;;;15.38;7.22;;;8.90;41.20;;;;;;4989374;28;115093;-81
2023/03/08 10:45:12;;;;;;;15.73;8.35;;;9.00;41.30;;;;;;4988817;28;114719;-80
2023/03/08 10:47:39;;;;;;;14.07;7.82;;;9.10;41.20;;;;;;5005629;28;114634;-80
2023/03/08 10:50:18;;;;;;;15.50;7.45;;;9.20;41.10;;;;;;5023682;28;114231;-80
2023/03/08 10:52:47;;;;;;;11.30;7.55;;;9.20;41.00;;;;;;4988883;28;115090;-79
2023/03/08 10:55:20;;;;;;;16.95;8.10;;;9.30;40.80;;;;;;5023214;28;114650;-81
2023/03/08 10:57:54;;;;;;;10.90;7.10;;;9.30;40.70;;;;;;5005877;28;114275;-82
2023/03/08 11:00:39;;;;;;;11.85;7.80;;;9.40;40.00;;;;;;5004775;28;116354;-80
2023/03/08 11:03:17;;;;;;;;;;;9.50;40.30;;;;;;4988870;28;115478;-79
2023/03/08 11:06:07;;;;;;;11.45;7.53;;;9.40;41.50;;;;;;5022862;28;114606;-81
2023/03/08 11:09:00;;;;;;;11.93;6.93;;;9.40;39.70;;;;;;4974675;28;114477;-80
2023/03/08 11:11:27;;;;;;;9.50;6.75;;;9.30;39.90;;;;;;4978154;28;117009;-79
2023/03/08 11:13:54;;;;;;;22.83;9.02;;;9.30;40.00;;;;;;5003243;28;115905;-80
2023/03/08 11:16:51;;;;;;;14.80;7.88;;;9.30;40.00;;;;;;4988388;28;114711;-80
2023/03/08 11:19:45;;;;;;;11.93;6.53;;;9.40;40.30;;;;;;5005750;28;114546;-80
2023/03/08 11:22:46;;;;;;;14.68;7.13;;;9.40;40.10;;;;;;5023572;28;114490;-81
2023/03/08 11:25:28;;;;;;;10.07;6.43;;;9.30;40.10;;;;;;5022190;28;115020;-80
2023/03/08 11:28:04;;;;;;;11.50;7.40;;;9.30;39.70;;;;;;4973403;28;114879;-80
2023/03/08 11:31:05;;;;;;;14.27;7.20;;;9.30;39.50;;;;;;4988946;28;114678;-80
2023/03/08 11:34:13;;;;;;;24.88;9.07;;;9.30;39.80;;;;;;5004558;28;114796;-80
2023/03/08 11:37:34;;;;;;;16.25;8.13;;;9.30;39.80;;;;;;5021957;28;115194;-80
2023/03/08 11:40:25;;;;;;;11.30;7.18;;;9.30;40.20;;;;;;5004450;28;114640;-81
2023/03/08 11:43:33;;;;;;;20.58;9.27;;;9.30;40.10;;;;;;4989412;28;114399;-81
2023/03/08 11:46:56;;;;;;;12.63;6.80;;;9.40;40.00;;;;;;5003702;28;114518;-79
2023/03/08 11:50:04;;;;;;;11.10;7.07;;;9.40;39.80;;;;;;5004851;28;115028;-79
2023/03/08 11:52:45;;;;;;;10.40;6.78;;;9.40;39.40;;;;;;5005588;28;115105;-80
2023/03/08 11:55:48;;;;;;;11.05;6.55;;;9.40;39.20;;;;;;5009335;28;114508;-79
2023/03/08 11:58:36;;;;;;;10.35;6.40;;;9.30;38.90;;;;;;5008138;28;114576;-80
2023/03/08 12:01:18;;;;;;;10.55;6.35;;;9.30;39.00;;;;;;4990362;28;115177;-79
2023/03/08 12:03:51;;;;;;;10.45;6.53;;;9.20;39.00;;;;;;4991506;28;114807;-79
2023/03/08 12:06:48;;;;;;;14.52;7.32;;;9.20;39.20;;;;;;4992681;28;114430;-79
2023/03/08 12:09:35;;;;;;;18.10;9.82;;;9.30;39.40;;;;;;4971009;28;114770;-79
2023/03/08 12:12:16;;;;;;;18.27;8.63;;;9.20;39.20;;;;;;5007166;28;116553;-79
2023/03/08 12:15:48;;;;;;;11.90;7.67;;;9.30;39.40;;;;;;5008115;28;114892;-80
2023/03/08 12:19:41;;;;;;;14.52;7.15;;;9.40;39.80;;;;;;4893827;28;115540;-79
2023/03/08 12:22:42;;;;;;;9.35;6.63;;;9.40;39.70;;;;;;4975052;28;114343;-79
2023/03/08 12:25:12;;;;;;;10.60;7.03;;;9.50;39.30;;;;;;5025109;28;115277;-79
2023/03/08 12:27:57;;;;;;;12.15;7.47;;;9.40;39.30;;;;;;5006758;28;115760;-80
2023/03/08 12:31:04;;;;;;;15.68;7.47;;;9.40;39.20;;;;;;4993048;28;114408;-79
2023/03/08 12:33:38;;;;;;;11.48;6.78;;;9.50;39.10;;;;;;5009095;28;114293;-79
2023/03/08 12:36:06;;;;;;;10.13;6.47;;;9.50;39.20;;;;;;5006903;28;115703;-79
2023/03/08 12:38:41;;;;;;;9.73;6.28;;;9.60;39.10;;;;;;4974305;28;115110;-80
2023/03/08 12:41:27;;;;;;;12.98;7.22;;;9.60;38.90;;;;;;5025817;28;114256;-80
2023/03/08 12:44:06;;;;;;;11.18;6.10;;;9.60;38.90;;;;;;5007992;28;114682;-80
2023/03/08 12:46:53;;;;;;;9.88;5.88;;;9.60;38.60;;;;;;5007077;28;115402;-80
2023/03/08 12:49:35;;;;;;;11.35;5.80;;;9.60;38.50;;;;;;5008735;28;116206;-80
2023/03/08 12:52:18;;;;;;;10.27;6.05;;;9.50;38.50;;;;;;4991795;28;114707;-80
2023/03/08 12:55:20;;;;;;;11.57;6.05;;;9.40;38.50;;;;;;5025228;28;114289;-80
2023/03/08 12:57:53;;;;;;;12.43;6.22;;;9.40;38.20;;;;;;5024110;28;115265;-81
2023/03/08 13:00:25;;;;;;;24.83;12.98;;;9.30;38.30;;;;;;4970068;28;114838;-81
2023/03/08 13:03:10;;;;;;;8.02;5.45;;;9.20;38.80;;;;;;5003883;28;114537;-80
2023/03/08 13:05:39;;;;;;;7.53;5.35;;;9.30;38.40;;;;;;4987191;28;114465;-81
2023/03/08 13:08:31;;;;;;;8.20;5.20;;;9.20;38.50;;;;;;5002945;28;115101;-81